Appleton, Maine
Current Conditions -  °F | °C
As of 4:55 AM on Sunday 23 Nov 2014 (Local Time) from KRKD Reporting Station
Broken Clouds Broken Clouds  
Wind Chill: 34°   Ceiling: 11000
Heat Index: 39°   Visibility: 10mi
Dew Point: 27°   Wind: 8mph
Humidity: 61%   Direction: 270°W
Pressure: 29.97"   Gusts: NA
Location:  44.2596°N, 69.2573°W
Report Text: KRKD 230955Z AUTO 27007KT 10SM BKN110 04/M03 A2997 RMK AO1
Loading
Personal Weather Stations






























Interactive Weather Map New forecast layout! Learn more

10-Day Weather Forecast

Advertisements
Track Severe Weather on mobile